Terminal Aerodrome Forecast
Issued by NWS Blacksburg, VA

Home | Current Version | Previous Version | Text Only | Print | Product List | Glossary On
Versions: 1 2 3 4 5 6 7 8 9 10 11 12 13
000
FTUS41 KRNK 190543
TAFDAN
TAF
KDAN 190543Z 1906/2006 05007KT P6SM -RA SCT070 OVC100
     FM190800 06008KT 5SM -RA BR BKN050 OVC080
     FM191400 07012G18KT 5SM -RA BR BKN035 OVC060
     FM192100 08013G20KT P6SM BKN035 OVC100=

USA.gov is the U.S. government's official web portal to all federal, state and local government web resources and services.